Mbalmayo, Cameroon
Current Conditions -  °F | °C
As of 7:00 PM on Wednesday 28 Jan 2015 (Local Time) from FKYS Reporting Station
Few Clouds Few Clouds  
Wind Chill: 79°   Ceiling: Unl
Heat Index: 81°   Visibility: 6mi
Dew Point: 68°   Wind: 2mph
Humidity: 69%   Direction: 240°WSW
Pressure: 29.91"   Gusts: NA
Location:  3.52°N, 11.5°E
Report Text: FKYS 281800Z 24002KT 9999 FEW013 26/20 Q1013 NOSIG
Loading
Personal Weather Stations






























Interactive Weather Map New forecast layout! Learn more

10-Day Weather Forecast

Advertisements
Track Severe Weather on mobile